createdAt,value
2023-01-13T00:00:20.711Z,64.45
2023-01-13T00:02:47.964Z,60.72
2023-01-13T00:05:16.140Z,72.45
2023-01-13T00:07:43.687Z,55.67
2023-01-13T00:10:11.641Z,47.83
2023-01-13T00:12:44.764Z,58.60
2023-01-13T00:15:13.704Z,68.60
2023-01-13T00:17:40.772Z,76.45
2023-01-13T00:20:09.454Z,70.90
2023-01-13T00:22:36.616Z,60.58
2023-01-13T00:25:04.746Z,61.40
2023-01-13T00:27:32.031Z,50.20
2023-01-13T00:29:59.607Z,65.85
2023-01-13T00:32:27.357Z,63.28
2023-01-13T00:34:54.528Z,63.05
2023-01-13T00:37:22.207Z,68.53
2023-01-13T00:39:50.751Z,62.88
2023-01-13T00:42:36.780Z,59.20
2023-01-13T00:45:05.155Z,68.70
2023-01-13T00:47:32.257Z,69.10
2023-01-13T00:49:59.297Z,63.80
2023-01-13T00:52:27.289Z,68.90
2023-01-13T00:54:54.352Z,71.50
2023-01-13T00:57:21.820Z,75.95
2023-01-13T00:59:49.733Z,64.03
2023-01-13T01:02:16.913Z,80.07
2023-01-13T01:04:44.399Z,72.43
2023-01-13T01:07:11.403Z,76.63
2023-01-13T01:09:39.613Z,83.47
2023-01-13T01:12:11.147Z,78.47
2023-01-13T01:14:38.336Z,65.80
2023-01-13T01:17:05.446Z,80.07
2023-01-13T01:19:32.509Z,69.35
2023-01-13T01:21:59.551Z,83.10
2023-01-13T01:24:26.561Z,69.40
2023-01-13T01:26:54.805Z,76.97
2023-01-13T01:29:21.996Z,75.80
2023-01-13T01:31:49.210Z,96.80
2023-01-13T01:34:17.263Z,75.47
2023-01-13T01:36:44.422Z,80.60
2023-01-13T01:39:11.718Z,69.07
2023-01-13T01:41:38.827Z,85.13
2023-01-13T01:44:43.984Z,87.93
2023-01-13T01:47:16.647Z,61.80
2023-01-13T01:49:44.956Z,68.70
2023-01-13T01:52:18.062Z,71.53
2023-01-13T01:54:48.671Z,71.43
2023-01-13T01:57:22.012Z,75.30
2023-01-13T01:59:49.689Z,74.60
2023-01-13T02:02:16.940Z,75.38
2023-01-13T02:04:51.307Z,75.00
2023-01-13T02:07:22.956Z,97.47
2023-01-13T02:09:50.132Z,68.60
2023-01-13T02:12:30.146Z,72.30
2023-01-13T02:15:07.912Z,74.07
2023-01-13T02:18:07.678Z,72.00
2023-01-13T02:21:02.596Z,63.33
2023-01-13T02:24:42.127Z,81.30
2023-01-13T02:27:18.162Z,84.15
2023-01-13T02:31:02.366Z,89.72
2023-01-13T02:33:52.772Z,79.28
2023-01-13T02:36:52.440Z,70.03
2023-01-13T02:39:29.677Z,84.40
2023-01-13T02:42:27.152Z,66.45
2023-01-13T02:45:07.493Z,72.57
2023-01-13T02:47:37.669Z,73.22
2023-01-13T02:50:11.166Z,72.68
2023-01-13T02:52:52.020Z,80.18
2023-01-13T02:55:34.183Z,87.40
2023-01-13T02:58:03.999Z,87.00
2023-01-13T03:00:33.533Z,76.70
2023-01-13T03:03:01.643Z,73.72
2023-01-13T03:05:28.937Z,73.40
2023-01-13T03:08:15.868Z,81.47
2023-01-13T03:11:18.790Z,91.53
2023-01-13T03:14:15.044Z,83.65
2023-01-13T03:17:25.436Z,96.20
2023-01-13T03:20:15.956Z,84.63
2023-01-13T03:23:02.785Z,89.82
2023-01-13T03:25:36.939Z,79.40
2023-01-13T03:28:23.608Z,85.65
2023-01-13T03:30:55.129Z,70.00
2023-01-13T03:33:56.991Z,100.85
2023-01-13T03:36:26.986Z,91.70
2023-01-13T03:39:06.738Z,79.88
2023-01-13T03:41:43.594Z,84.93
2023-01-13T03:44:23.389Z,100.97
2023-01-13T03:47:27.695Z,91.72
2023-01-13T03:50:10.442Z,76.47
2023-01-13T03:52:47.883Z,64.10
2023-01-13T03:55:18.811Z,83.95
2023-01-13T03:58:02.634Z,62.55
2023-01-13T04:00:55.625Z,77.47
2023-01-13T04:03:36.104Z,101.82
2023-01-13T04:06:47.982Z,74.47
2023-01-13T04:09:24.183Z,91.85
2023-01-13T04:12:17.108Z,78.15
2023-01-13T04:14:44.455Z,88.80
2023-01-13T04:17:11.690Z,74.57
2023-01-13T04:19:38.746Z,58.05
2023-01-13T04:22:05.779Z,80.82
2023-01-13T04:24:32.809Z,85.07
2023-01-13T04:26:59.795Z,75.05
2023-01-13T04:29:27.259Z,80.45
2023-01-13T04:31:54.311Z,83.25
2023-01-13T04:34:21.493Z,63.10
2023-01-13T04:36:48.517Z,55.40
2023-01-13T04:39:15.499Z,72.50
2023-01-13T04:41:57.829Z,72.57
2023-01-13T04:44:25.259Z,66.55
2023-01-13T06:02:15.385Z,44.80
2023-01-13T06:04:42.476Z,46.15
2023-01-13T06:07:09.480Z,45.70
2023-01-13T06:09:39.050Z,42.33
2023-01-13T06:12:06.681Z,35.53
2023-01-13T06:14:40.183Z,41.55
2023-01-13T06:17:12.946Z,47.85
2023-01-13T06:19:40.780Z,28.27
2023-01-13T06:22:19.330Z,48.25
2023-01-13T06:24:46.538Z,42.88
2023-01-13T06:27:13.788Z,33.17
2023-01-13T06:29:41.359Z,35.65
2023-01-13T06:32:24.515Z,38.45
2023-01-13T06:35:00.661Z,39.97
2023-01-13T06:37:28.160Z,42.67
2023-01-13T06:39:58.641Z,51.53
2023-01-13T06:42:46.537Z,37.65
2023-01-13T06:45:13.640Z,55.25
2023-01-13T06:47:40.936Z,35.97
2023-01-13T06:50:08.673Z,45.40
2023-01-13T06:52:35.737Z,57.40
2023-01-13T06:55:03.330Z,53.65
2023-01-13T06:57:30.296Z,50.70
2023-01-13T06:59:57.444Z,47.25
2023-01-13T07:02:24.511Z,50.30
2023-01-13T07:04:51.869Z,55.42
2023-01-13T07:07:18.926Z,41.78
2023-01-13T07:09:45.950Z,34.28
2023-01-13T07:12:12.975Z,44.15
2023-01-13T07:14:58.857Z,39.55
2023-01-13T07:17:25.906Z,47.22
2023-01-13T07:19:53.424Z,45.35
2023-01-13T07:22:20.947Z,56.10
2023-01-13T07:24:47.938Z,48.92
2023-01-13T07:27:14.905Z,43.97
2023-01-13T07:29:41.964Z,47.72
2023-01-13T07:32:08.981Z,41.80
2023-01-13T07:34:36.673Z,43.33
2023-01-13T07:37:03.704Z,49.60
2023-01-13T07:39:30.693Z,52.83
2023-01-13T07:42:16.644Z,48.30
2023-01-13T07:44:43.722Z,38.90
2023-01-13T07:47:13.209Z,49.30
2023-01-13T07:49:40.314Z,64.10
2023-01-13T07:52:07.423Z,55.45
2023-01-13T07:54:40.723Z,42.20
2023-01-13T07:57:09.035Z,45.80
2023-01-13T07:59:36.027Z,55.92
2023-01-13T08:02:03.550Z,49.90
2023-01-13T08:04:30.616Z,58.08
2023-01-13T08:06:57.746Z,51.55
2023-01-13T08:09:24.733Z,62.40
2023-01-13T08:12:14.643Z,55.85
2023-01-13T08:14:41.812Z,41.30
2023-01-13T08:17:09.545Z,54.00
2023-01-13T08:19:36.832Z,48.35
2023-01-13T08:22:03.906Z,48.97
2023-01-13T08:24:30.871Z,55.08
2023-01-13T08:26:57.887Z,48.08
2023-01-13T08:29:24.865Z,55.80
2023-01-13T08:31:51.843Z,57.60
2023-01-13T08:34:18.821Z,60.70
2023-01-13T08:36:45.799Z,45.78
2023-01-13T08:39:12.749Z,49.97
2023-01-13T08:41:58.868Z,49.30
2023-01-13T08:44:32.817Z,56.28
2023-01-13T08:47:00.078Z,43.47
2023-01-13T08:49:27.503Z,61.72
2023-01-13T08:51:54.605Z,72.32
2023-01-13T08:54:21.881Z,63.17
2023-01-13T08:56:48.982Z,48.95
2023-01-13T08:59:18.862Z,52.78
2023-01-13T09:01:46.077Z,53.50
2023-01-13T09:04:29.549Z,58.35
2023-01-13T09:06:57.219Z,73.45
2023-01-13T09:09:27.693Z,41.88
2023-01-13T09:12:13.407Z,58.00
2023-01-13T09:14:40.635Z,63.08
2023-01-13T09:17:08.014Z,47.53
2023-01-13T09:19:35.548Z,43.85
2023-01-13T09:22:02.923Z,50.75
2023-01-13T09:24:30.329Z,32.88
2023-01-13T09:26:57.482Z,50.47
2023-01-13T09:29:24.568Z,57.60
2023-01-13T09:31:51.754Z,43.75
2023-01-13T09:34:38.974Z,37.53
2023-01-13T09:37:07.724Z,63.47
2023-01-13T09:39:36.254Z,59.50
2023-01-13T09:42:55.918Z,66.45
2023-01-13T09:45:46.904Z,56.88
2023-01-13T09:48:28.854Z,76.35
2023-01-13T09:53:51.530Z,67.22
2023-01-13T09:56:18.507Z,71.40
2023-01-13T09:58:45.988Z,56.67
2023-01-13T10:01:36.727Z,79.00
2023-01-13T10:04:09.531Z,68.47
2023-01-13T10:06:42.211Z,66.22
2023-01-13T10:09:18.936Z,33.15
2023-01-13T10:12:06.850Z,45.17
2023-01-13T10:14:45.986Z,48.83
2023-01-13T10:17:43.179Z,53.45
2023-01-13T10:20:35.811Z,47.88
2023-01-13T10:23:42.505Z,49.67
2023-01-13T10:26:52.648Z,44.45
2023-01-13T10:29:30.458Z,50.38
2023-01-13T10:31:59.321Z,63.97
2023-01-13T10:34:27.907Z,57.55
2023-01-13T10:37:01.333Z,63.03
2023-01-13T10:39:29.578Z,51.85
2023-01-13T10:42:04.836Z,58.33
2023-01-13T10:44:32.062Z,66.28
2023-01-13T10:47:00.043Z,33.25
2023-01-13T10:49:36.756Z,49.47
2023-01-13T10:52:06.139Z,48.58
2023-01-13T10:54:33.513Z,45.35
2023-01-13T10:57:20.120Z,41.85
2023-01-13T10:59:48.317Z,56.15
2023-01-13T11:02:26.222Z,50.58
2023-01-13T11:04:53.559Z,49.45
2023-01-13T11:07:39.428Z,44.42
2023-01-13T11:10:09.485Z,32.40
2023-01-13T11:13:11.575Z,34.90
2023-01-13T11:18:26.998Z,37.42
2023-01-13T11:20:55.703Z,53.67
2023-01-13T11:23:37.586Z,45.97
2023-01-13T11:29:05.912Z,49.63
2023-01-13T11:31:49.879Z,40.85
2023-01-13T11:34:35.712Z,48.05
2023-01-13T11:37:09.960Z,37.80
2023-01-13T11:40:12.381Z,35.05
2023-01-13T11:43:11.820Z,36.67
2023-01-13T11:45:47.059Z,42.15
2023-01-13T11:48:26.951Z,31.52
2023-01-13T11:51:10.399Z,42.67
2023-01-13T11:54:27.579Z,24.75
2023-01-13T11:57:03.737Z,30.02
2023-01-13T12:00:04.605Z,31.35
2023-01-13T12:03:17.338Z,30.40
2023-01-13T12:06:07.126Z,30.98
2023-01-13T12:08:53.528Z,34.65
2023-01-13T12:12:10.893Z,32.45
2023-01-13T13:08:27.668Z,18.05
2023-01-13T13:11:32.228Z,35.58
2023-01-13T13:14:10.965Z,30.23
2023-01-13T13:16:53.901Z,25.83
2023-01-13T13:19:21.362Z,22.17
2023-01-13T13:22:06.885Z,28.40
2023-01-13T13:24:33.928Z,23.25
2023-01-13T13:27:27.066Z,21.48
2023-01-13T13:30:18.611Z,17.95
2023-01-13T13:33:20.088Z,36.05
2023-01-13T13:36:13.705Z,33.22
2023-01-13T13:39:15.876Z,45.35
2023-01-13T13:45:19.691Z,24.13
2023-01-13T13:47:46.858Z,23.30
2023-01-13T13:50:20.952Z,26.88
2023-01-13T13:52:55.827Z,31.45
2023-01-13T13:55:26.766Z,24.15
2023-01-13T13:57:56.083Z,36.78
2023-01-13T14:00:35.638Z,31.88
2023-01-13T14:03:07.688Z,26.05
2023-01-13T14:05:36.644Z,28.90
2023-01-13T14:08:14.946Z,23.85
2023-01-13T14:10:44.980Z,27.17
2023-01-13T14:13:27.710Z,32.30
2023-01-13T14:16:00.166Z,30.08
2023-01-13T14:18:29.242Z,31.42
2023-01-13T14:21:17.548Z,27.25
2023-01-13T14:24:16.545Z,29.67
2023-01-13T14:26:43.589Z,27.00
2023-01-13T14:29:16.543Z,37.15
2023-01-13T14:31:44.180Z,37.15
2023-01-13T14:34:31.093Z,32.47
2023-01-13T14:36:59.005Z,23.02
2023-01-13T14:39:40.674Z,23.08
2023-01-13T14:42:14.290Z,19.45
2023-01-13T14:44:49.531Z,39.17
2023-01-13T14:47:29.123Z,35.10
2023-01-13T14:50:04.989Z,30.30
2023-01-13T14:52:57.087Z,38.92
2023-01-13T14:55:33.831Z,23.52
2023-01-13T14:58:22.584Z,28.90
2023-01-13T15:00:51.506Z,25.00
2023-01-13T15:03:21.022Z,31.65
2023-01-13T15:05:53.228Z,31.63
2023-01-13T15:08:33.972Z,32.22
2023-01-13T15:11:07.142Z,21.60
2023-01-13T15:13:53.129Z,28.02
2023-01-13T15:16:28.303Z,31.58
2023-01-13T15:18:59.375Z,23.73
2023-01-13T15:21:26.688Z,28.50
2023-01-13T15:23:53.724Z,23.33
2023-01-13T15:26:27.554Z,33.17
2023-01-13T15:28:57.409Z,29.50
2023-01-13T15:31:26.048Z,32.45
2023-01-13T15:33:53.343Z,29.48
2023-01-13T15:36:27.894Z,33.17
2023-01-13T15:38:57.823Z,34.88
2023-01-13T15:41:43.996Z,44.28
2023-01-13T15:44:31.023Z,32.95
2023-01-13T15:47:03.521Z,45.63
2023-01-13T15:49:39.593Z,36.08
2023-01-13T15:52:22.492Z,53.33
2023-01-13T15:54:50.861Z,38.15
2023-01-13T15:57:27.522Z,39.42
2023-01-13T16:00:01.775Z,42.90
2023-01-13T16:02:29.854Z,18.67
2023-01-13T16:04:57.214Z,25.60
2023-01-13T16:07:25.523Z,30.98
2023-01-13T16:09:52.709Z,51.70
2023-01-13T16:12:19.750Z,32.20
2023-01-13T16:14:46.806Z,37.45
2023-01-13T16:17:25.422Z,45.80
2023-01-13T16:19:52.519Z,46.35
2023-01-13T16:22:19.683Z,38.22
2023-01-13T16:24:46.807Z,24.38
2023-01-13T16:27:19.680Z,31.42
2023-01-13T16:29:47.591Z,31.25
2023-01-13T16:32:15.259Z,43.03
2023-01-13T16:34:42.432Z,48.50
2023-01-13T16:37:28.290Z,36.03
2023-01-13T16:39:55.686Z,31.55
2023-01-13T16:42:22.789Z,45.88
2023-01-13T16:44:50.829Z,29.05
2023-01-13T16:47:18.852Z,35.05
2023-01-13T16:49:46.344Z,24.67
2023-01-13T16:52:13.410Z,32.33
2023-01-13T16:54:40.389Z,23.95
2023-01-13T16:57:07.932Z,27.80
2023-01-13T16:59:34.995Z,27.02
2023-01-13T17:02:02.323Z,36.60
2023-01-13T17:04:29.390Z,26.15
2023-01-13T17:07:08.235Z,24.73
2023-01-13T17:09:35.585Z,27.85
2023-01-13T17:12:02.653Z,21.88
2023-01-13T17:14:29.648Z,21.42
2023-01-13T17:16:59.680Z,22.92
2023-01-13T17:19:26.886Z,19.98
2023-01-13T17:21:53.971Z,23.85
2023-01-13T17:24:21.527Z,25.50
2023-01-13T17:26:51.031Z,25.10
2023-01-13T17:29:25.443Z,25.52
2023-01-13T17:31:53.051Z,40.63
2023-01-13T17:34:21.423Z,27.95
2023-01-13T17:36:48.757Z,27.08
2023-01-13T17:39:22.263Z,28.33
2023-01-13T17:41:49.830Z,32.38
2023-01-13T17:44:18.913Z,26.38
2023-01-13T17:46:46.700Z,27.70
2023-01-13T17:49:15.757Z,40.97
2023-01-13T17:51:42.948Z,26.90
2023-01-13T17:54:12.511Z,27.55
2023-01-13T17:56:41.103Z,25.00
2023-01-13T17:59:10.564Z,34.22
2023-01-13T18:01:38.627Z,30.33
2023-01-13T18:04:06.973Z,35.03
2023-01-13T18:06:34.272Z,28.17
2023-01-13T18:09:01.662Z,32.63
2023-01-13T18:11:28.768Z,31.17
2023-01-13T18:14:00.338Z,32.88
2023-01-13T18:16:29.775Z,32.25
2023-01-13T18:19:16.675Z,22.23
2023-01-13T18:22:02.638Z,40.17
2023-01-13T18:24:48.484Z,28.92
2023-01-13T18:27:23.068Z,27.70
2023-01-13T18:30:01.466Z,30.40
2023-01-13T18:32:33.046Z,32.42
2023-01-13T18:37:42.205Z,27.70
2023-01-13T18:40:12.259Z,17.98
2023-01-13T18:42:51.715Z,23.23
2023-01-13T18:45:22.111Z,18.92
2023-01-13T18:47:49.422Z,19.30
2023-01-13T18:50:17.582Z,19.65
2023-01-13T18:52:44.699Z,17.27
2023-01-13T18:55:11.747Z,13.57
2023-01-13T18:57:41.747Z,10.30
2023-01-13T19:00:13.449Z,9.95
2023-01-13T19:05:07.881Z,15.55
2023-01-13T19:07:36.040Z,11.63
2023-01-13T19:10:05.685Z,16.05
2023-01-13T19:12:33.848Z,15.63
2023-01-13T19:15:02.187Z,18.58
2023-01-13T19:17:33.640Z,22.15
2023-01-13T19:20:01.060Z,25.08
2023-01-13T19:22:32.798Z,32.35
2023-01-13T19:27:28.813Z,31.63
2023-01-13T19:30:00.983Z,38.67
2023-01-13T19:32:30.789Z,27.08
2023-01-13T19:34:59.744Z,32.85
2023-01-13T19:37:30.534Z,32.47
2023-01-13T19:39:59.252Z,30.30
2023-01-13T19:42:45.798Z,29.10
2023-01-13T19:45:31.072Z,26.02
2023-01-13T19:48:01.874Z,26.70
2023-01-13T19:50:29.264Z,26.80
2023-01-13T19:52:56.690Z,25.02
2023-01-13T19:55:23.711Z,27.42
2023-01-13T19:57:51.019Z,27.95
2023-01-13T20:00:21.037Z,26.00
2023-01-13T20:02:49.921Z,27.27
2023-01-13T20:05:21.503Z,26.67
2023-01-13T20:07:50.124Z,14.70
2023-01-13T20:10:19.654Z,18.58
2023-01-13T20:12:46.697Z,30.27
2023-01-13T20:15:14.141Z,27.70
2023-01-13T20:17:41.700Z,16.33
2023-01-13T20:20:10.677Z,21.73
2023-01-13T20:22:39.389Z,25.73
2023-01-13T20:25:07.937Z,19.02
2023-01-13T20:27:34.995Z,25.95
2023-01-13T20:30:02.063Z,22.40
2023-01-13T20:32:29.038Z,18.27
2023-01-13T20:34:56.021Z,30.98
2023-01-13T20:37:23.039Z,38.45
2023-01-13T20:39:50.017Z,43.17
2023-01-13T20:44:58.062Z,27.95
2023-01-13T20:47:29.429Z,35.88
2023-01-13T20:49:56.829Z,37.37
2023-01-13T20:52:24.011Z,33.17
2023-01-13T20:54:54.214Z,28.17
2023-01-13T20:57:21.309Z,34.72
2023-01-13T20:59:48.431Z,28.40
2023-01-13T21:02:16.570Z,35.67
2023-01-13T21:04:44.080Z,24.10
2023-01-13T21:07:11.441Z,26.55
2023-01-13T21:09:38.471Z,25.88
2023-01-13T21:12:24.967Z,38.75
2023-01-13T21:15:10.711Z,35.05
2023-01-13T21:17:56.707Z,30.58
2023-01-13T21:20:23.763Z,46.63
2023-01-13T21:22:51.200Z,29.08
2023-01-13T21:25:19.592Z,31.38
2023-01-13T21:27:46.691Z,27.80
2023-01-13T21:30:15.860Z,33.93
2023-01-13T21:32:44.727Z,29.17
2023-01-13T21:35:13.375Z,27.55
2023-01-13T21:37:41.974Z,35.50
2023-01-13T21:40:12.117Z,30.70
2023-01-13T21:42:57.945Z,32.22
2023-01-13T21:45:46.525Z,34.63
2023-01-13T21:48:13.614Z,35.45
2023-01-13T21:50:40.900Z,27.67
2023-01-13T21:53:08.296Z,25.00
2023-01-13T21:55:37.052Z,27.23
2023-01-13T21:58:11.652Z,25.70
2023-01-13T22:00:40.849Z,32.38
2023-01-13T22:03:09.458Z,50.03
2023-01-13T22:05:37.048Z,22.25
2023-01-13T22:08:04.830Z,36.95
2023-01-13T22:10:32.226Z,33.40
2023-01-13T22:13:21.853Z,35.13
2023-01-13T22:15:48.891Z,30.17
2023-01-13T22:18:18.054Z,39.78
2023-01-13T22:20:45.405Z,25.33
2023-01-13T22:23:12.603Z,29.05
2023-01-13T22:25:39.724Z,26.63
2023-01-13T22:28:09.145Z,46.53
2023-01-13T22:30:36.167Z,48.35
2023-01-13T22:33:03.244Z,46.75
2023-01-13T22:35:30.298Z,42.88
2023-01-13T22:37:58.234Z,33.45
2023-01-13T22:40:25.592Z,35.40
2023-01-13T22:42:52.570Z,23.55
2023-01-13T22:45:19.675Z,36.97
2023-01-13T22:47:46.907Z,49.90
2023-01-13T22:50:13.931Z,33.83
2023-01-13T22:52:40.876Z,38.35
2023-01-13T22:55:08.632Z,35.83
2023-01-13T22:57:46.739Z,30.15
2023-01-13T23:00:18.766Z,26.40
2023-01-13T23:02:45.982Z,30.38
2023-01-13T23:05:13.898Z,35.30
2023-01-13T23:07:41.223Z,39.58
2023-01-13T23:10:09.135Z,38.58
2023-01-13T23:12:36.135Z,38.53
2023-01-13T23:15:04.045Z,33.85
2023-01-13T23:17:31.202Z,37.83
2023-01-13T23:19:58.269Z,38.50
2023-01-13T23:22:25.566Z,24.85
2023-01-13T23:24:52.679Z,33.80
2023-01-13T23:27:19.812Z,32.20
2023-01-13T23:29:46.831Z,37.75
2023-01-13T23:32:13.868Z,31.23
2023-01-13T23:34:40.912Z,27.55
2023-01-13T23:37:07.903Z,39.55
2023-01-13T23:39:34.893Z,36.75
2023-01-13T23:42:01.958Z,46.60
2023-01-13T23:44:29.551Z,41.55
2023-01-13T23:46:56.744Z,27.70
2023-01-13T23:49:23.715Z,28.92
2023-01-13T23:51:51.679Z,41.00
2023-01-13T23:54:19.373Z,39.88
2023-01-13T23:56:46.364Z,37.53
2023-01-13T23:59:13.333Z,38.28
